sensor_id;sensor_type;location;lat;lon;timestamp;pressure;altitude;pressure_sealevel;temperature;humidity
73103;BME280;61294;65.988;29.172;2022-12-10T00:01:41;98555.03;;;-8.64;100.00
73103;BME280;61294;65.988;29.172;2022-12-10T00:04:07;98537.53;;;-8.72;100.00
73103;BME280;61294;65.988;29.172;2022-12-10T00:06:34;98524.47;;;-8.76;100.00
73103;BME280;61294;65.988;29.172;2022-12-10T00:09:02;98539.28;;;-8.71;100.00
73103;BME280;61294;65.988;29.172;2022-12-10T00:11:29;98523.97;;;-8.71;100.00
73103;BME280;61294;65.988;29.172;2022-12-10T00:13:55;98557.13;;;-8.59;100.00
73103;BME280;61294;65.988;29.172;2022-12-10T00:16:22;98522.00;;;-8.75;100.00
73103;BME280;61294;65.988;29.172;2022-12-10T00:18:49;98542.59;;;-8.60;100.00
73103;BME280;61294;65.988;29.172;2022-12-10T00:21:21;98527.31;;;-8.72;100.00
73103;BME280;61294;65.988;29.172;2022-12-10T00:23:47;98522.88;;;-8.74;100.00
73103;BME280;61294;65.988;29.172;2022-12-10T00:26:22;98521.19;;;-8.74;100.00
73103;BME280;61294;65.988;29.172;2022-12-10T00:28:50;98553.91;;;-8.56;100.00
73103;BME280;61294;65.988;29.172;2022-12-10T00:31:20;98531.84;;;-8.68;100.00
73103;BME280;61294;65.988;29.172;2022-12-10T00:33:47;98534.06;;;-8.60;100.00
73103;BME280;61294;65.988;29.172;2022-12-10T00:36:19;98549.56;;;-8.57;100.00
73103;BME280;61294;65.988;29.172;2022-12-10T00:38:47;98544.00;;;-8.52;100.00
73103;BME280;61294;65.988;29.172;2022-12-10T00:41:14;98559.63;;;-8.47;100.00
73103;BME280;61294;65.988;29.172;2022-12-10T00:43:41;98527.53;;;-8.69;100.00
73103;BME280;61294;65.988;29.172;2022-12-10T00:46:07;98509.81;;;-8.79;100.00
73103;BME280;61294;65.988;29.172;2022-12-10T00:48:33;98523.28;;;-8.68;100.00
73103;BME280;61294;65.988;29.172;2022-12-10T00:51:20;98556.66;;;-8.53;100.00
73103;BME280;61294;65.988;29.172;2022-12-10T00:53:47;98578.03;;;-8.39;100.00
73103;BME280;61294;65.988;29.172;2022-12-10T00:56:18;98574.66;;;-8.38;100.00
73103;BME280;61294;65.988;29.172;2022-12-10T00:58:54;98534.34;;;-8.56;100.00
73103;BME280;61294;65.988;29.172;2022-12-10T01:01:29;98554.31;;;-8.50;100.00
73103;BME280;61294;65.988;29.172;2022-12-10T01:04:02;98555.41;;;-8.46;100.00
73103;BME280;61294;65.988;29.172;2022-12-10T01:06:34;98540.13;;;-8.58;100.00
73103;BME280;61294;65.988;29.172;2022-12-10T01:09:05;98558.66;;;-8.49;100.00
73103;BME280;61294;65.988;29.172;2022-12-10T01:11:36;98589.53;;;-8.33;100.00
73103;BME280;61294;65.988;29.172;2022-12-10T01:14:04;98568.78;;;-8.37;100.00
73103;BME280;61294;65.988;29.172;2022-12-10T01:16:30;98572.69;;;-8.42;100.00
73103;BME280;61294;65.988;29.172;2022-12-10T01:18:57;98590.75;;;-8.27;100.00
73103;BME280;61294;65.988;29.172;2022-12-10T01:21:24;98565.34;;;-8.38;100.00
73103;BME280;61294;65.988;29.172;2022-12-10T01:23:52;98581.97;;;-8.31;100.00
73103;BME280;61294;65.988;29.172;2022-12-10T01:26:22;98582.88;;;-8.30;100.00
73103;BME280;61294;65.988;29.172;2022-12-10T01:28:50;98559.72;;;-8.45;100.00
73103;BME280;61294;65.988;29.172;2022-12-10T01:31:24;98586.59;;;-8.25;100.00
73103;BME280;61294;65.988;29.172;2022-12-10T01:33:50;98567.09;;;-8.37;100.00
73103;BME280;61294;65.988;29.172;2022-12-10T01:36:22;98549.69;;;-8.42;100.00
73103;BME280;61294;65.988;29.172;2022-12-10T01:38:48;98563.97;;;-8.33;100.00
73103;BME280;61294;65.988;29.172;2022-12-10T01:41:18;98575.59;;;-8.24;100.00
73103;BME280;61294;65.988;29.172;2022-12-10T01:43:51;98563.31;;;-8.30;100.00
73103;BME280;61294;65.988;29.172;2022-12-10T01:46:18;98572.44;;;-8.34;100.00
73103;BME280;61294;65.988;29.172;2022-12-10T01:48:44;98576.38;;;-8.25;100.00
73103;BME280;61294;65.988;29.172;2022-12-10T01:51:12;98570.00;;;-8.32;100.00
73103;BME280;61294;65.988;29.172;2022-12-10T01:53:38;98568.50;;;-8.28;100.00
73103;BME280;61294;65.988;29.172;2022-12-10T01:56:04;98576.38;;;-8.25;100.00
73103;BME280;61294;65.988;29.172;2022-12-10T01:58:30;98572.84;;;-8.27;100.00
73103;BME280;61294;65.988;29.172;2022-12-10T02:01:05;98588.78;;;-8.18;100.00
73103;BME280;61294;65.988;29.172;2022-12-10T02:06:58;98589.69;;;-8.18;100.00
73103;BME280;61294;65.988;29.172;2022-12-10T02:12:20;98577.56;;;-8.34;100.00
73103;BME280;61294;65.988;29.172;2022-12-10T02:15:12;98570.56;;;-8.36;100.00
73103;BME280;61294;65.988;29.172;2022-12-10T02:20:16;98600.97;;;-8.27;100.00
73103;BME280;61294;65.988;29.172;2022-12-10T02:22:55;98570.13;;;-8.42;100.00
73103;BME280;61294;65.988;29.172;2022-12-10T02:25:25;98610.91;;;-8.19;100.00
73103;BME280;61294;65.988;29.172;2022-12-10T02:30:47;98570.88;;;-8.45;100.00
73103;BME280;61294;65.988;29.172;2022-12-10T02:33:16;98614.72;;;-8.25;100.00
73103;BME280;61294;65.988;29.172;2022-12-10T02:35:45;98576.13;;;-8.42;100.00
73103;BME280;61294;65.988;29.172;2022-12-10T02:38:17;98585.69;;;-8.39;100.00
73103;BME280;61294;65.988;29.172;2022-12-10T02:40:48;98608.53;;;-8.29;100.00
73103;BME280;61294;65.988;29.172;2022-12-10T02:43:16;98590.91;;;-8.38;100.00
73103;BME280;61294;65.988;29.172;2022-12-10T02:45:43;98586.97;;;-8.46;100.00
73103;BME280;61294;65.988;29.172;2022-12-10T02:48:10;98592.25;;;-8.43;100.00
73103;BME280;61294;65.988;29.172;2022-12-10T02:50:37;98557.69;;;-8.63;100.00
73103;BME280;61294;65.988;29.172;2022-12-10T02:53:03;98598.22;;;-8.42;100.00
73103;BME280;61294;65.988;29.172;2022-12-10T02:55:56;98611.53;;;-8.35;100.00
73103;BME280;61294;65.988;29.172;2022-12-10T02:58:56;98610.53;;;-8.37;100.00
73103;BME280;61294;65.988;29.172;2022-12-10T03:01:47;98611.25;;;-8.39;100.00
73103;BME280;61294;65.988;29.172;2022-12-10T03:04:46;98587.88;;;-8.57;100.00
73103;BME280;61294;65.988;29.172;2022-12-10T03:07:22;98580.13;;;-8.59;100.00
73103;BME280;61294;65.988;29.172;2022-12-10T03:10:07;98597.34;;;-8.56;100.00
73103;BME280;61294;65.988;29.172;2022-12-10T03:12:47;98605.41;;;-8.50;100.00
73103;BME280;61294;65.988;29.172;2022-12-10T03:15:16;98568.38;;;-8.69;100.00
73103;BME280;61294;65.988;29.172;2022-12-10T03:17:46;98579.13;;;-8.61;100.00
73103;BME280;61294;65.988;29.172;2022-12-10T03:20:14;98579.47;;;-8.68;100.00
73103;BME280;61294;65.988;29.172;2022-12-10T03:22:44;98574.81;;;-8.74;100.00
73103;BME280;61294;65.988;29.172;2022-12-10T03:25:13;98609.31;;;-8.55;100.00
73103;BME280;61294;65.988;29.172;2022-12-10T03:27:41;98602.44;;;-8.56;100.00
73103;BME280;61294;65.988;29.172;2022-12-10T03:30:11;98581.03;;;-8.70;100.00
73103;BME280;61294;65.988;29.172;2022-12-10T03:32:37;98606.13;;;-8.64;100.00
73103;BME280;61294;65.988;29.172;2022-12-10T03:35:04;98579.72;;;-8.77;100.00
73103;BME280;61294;65.988;29.172;2022-12-10T03:37:31;98578.84;;;-8.77;100.00
73103;BME280;61294;65.988;29.172;2022-12-10T03:39:58;98585.59;;;-8.78;100.00
73103;BME280;61294;65.988;29.172;2022-12-10T03:42:24;98618.91;;;-8.64;100.00
73103;BME280;61294;65.988;29.172;2022-12-10T03:44:51;98591.06;;;-8.85;100.00
73103;BME280;61294;65.988;29.172;2022-12-10T03:47:18;98617.66;;;-8.70;100.00
73103;BME280;61294;65.988;29.172;2022-12-10T03:49:45;98615.56;;;-8.75;100.00
73103;BME280;61294;65.988;29.172;2022-12-10T03:52:10;98599.06;;;-8.92;100.00
73103;BME280;61294;65.988;29.172;2022-12-10T03:54:36;98595.53;;;-8.94;100.00
73103;BME280;61294;65.988;29.172;2022-12-10T03:57:02;98629.59;;;-8.82;100.00
73103;BME280;61294;65.988;29.172;2022-12-10T03:59:28;98593.44;;;-9.00;100.00
73103;BME280;61294;65.988;29.172;2022-12-10T04:01:55;98617.50;;;-8.96;100.00
73103;BME280;61294;65.988;29.172;2022-12-10T04:04:20;98601.34;;;-9.09;100.00
73103;BME280;61294;65.988;29.172;2022-12-10T04:06:46;98606.53;;;-9.07;100.00
73103;BME280;61294;65.988;29.172;2022-12-10T04:09:13;98617.50;;;-8.96;100.00
73103;BME280;61294;65.988;29.172;2022-12-10T04:11:40;98607.88;;;-9.00;100.00
73103;BME280;61294;65.988;29.172;2022-12-10T04:14:10;98633.06;;;-8.93;100.00
73103;BME280;61294;65.988;29.172;2022-12-10T04:16:55;98601.22;;;-9.10;100.00
73103;BME280;61294;65.988;29.172;2022-12-10T04:19:22;98604.66;;;-9.10;100.00
73103;BME280;61294;65.988;29.172;2022-12-10T04:21:48;98632.16;;;-8.94;100.00
73103;BME280;61294;65.988;29.172;2022-12-10T04:24:33;98626.47;;;-8.90;100.00
73103;BME280;61294;65.988;29.172;2022-12-10T04:27:21;98642.47;;;-8.92;100.00
73103;BME280;61294;65.988;29.172;2022-12-10T04:29:48;98598.56;;;-9.12;100.00
73103;BME280;61294;65.988;29.172;2022-12-10T04:32:14;98617.19;;;-9.01;100.00
73103;BME280;61294;65.988;29.172;2022-12-10T04:34:40;98605.97;;;-9.15;100.00
73103;BME280;61294;65.988;29.172;2022-12-10T04:37:06;98630.41;;;-8.95;100.00
73103;BME280;61294;65.988;29.172;2022-12-10T04:39:32;98636.72;;;-9.02;100.00
73103;BME280;61294;65.988;29.172;2022-12-10T04:41:59;98625.03;;;-8.98;100.00
73103;BME280;61294;65.988;29.172;2022-12-10T04:44:26;98603.75;;;-9.22;100.00
73103;BME280;61294;65.988;29.172;2022-12-10T04:46:52;98606.56;;;-9.19;100.00
73103;BME280;61294;65.988;29.172;2022-12-10T04:49:18;98633.72;;;-9.08;100.00
73103;BME280;61294;65.988;29.172;2022-12-10T04:51:44;98613.09;;;-9.23;100.00
73103;BME280;61294;65.988;29.172;2022-12-10T04:54:11;98648.34;;;-9.05;100.00
73103;BME280;61294;65.988;29.172;2022-12-10T04:56:37;98661.34;;;-9.02;100.00
73103;BME280;61294;65.988;29.172;2022-12-10T04:59:04;98633.72;;;-9.08;100.00
73103;BME280;61294;65.988;29.172;2022-12-10T05:01:30;98660.91;;;-9.08;100.00
73103;BME280;61294;65.988;29.172;2022-12-10T05:04:00;98666.78;;;-9.09;100.00
73103;BME280;61294;65.988;29.172;2022-12-10T05:06:26;98660.78;;;-9.10;100.00
73103;BME280;61294;65.988;29.172;2022-12-10T05:08:52;98658.78;;;-9.14;100.00
73103;BME280;61294;65.988;29.172;2022-12-10T05:11:20;98660.47;;;-9.14;100.00
73103;BME280;61294;65.988;29.172;2022-12-10T05:13:47;98672.47;;;-9.13;100.00
73103;BME280;61294;65.988;29.172;2022-12-10T05:16:15;98667.47;;;-9.12;100.00
73103;BME280;61294;65.988;29.172;2022-12-10T05:18:41;98671.13;;;-9.08;100.00
73103;BME280;61294;65.988;29.172;2022-12-10T05:21:10;98673.00;;;-9.06;100.00
73103;BME280;61294;65.988;29.172;2022-12-10T05:23:37;98675.66;;;-9.04;100.00
73103;BME280;61294;65.988;29.172;2022-12-10T05:26:06;98670.25;;;-9.09;100.00
73103;BME280;61294;65.988;29.172;2022-12-10T05:28:43;98671.78;;;-9.11;100.00
73103;BME280;61294;65.988;29.172;2022-12-10T05:31:21;98685.44;;;-9.10;100.00
73103;BME280;61294;65.988;29.172;2022-12-10T05:33:48;98661.03;;;-9.18;100.00
73103;BME280;61294;65.988;29.172;2022-12-10T05:36:17;98676.22;;;-9.08;100.00
73103;BME280;61294;65.988;29.172;2022-12-10T05:38:43;98682.34;;;-9.06;100.00
73103;BME280;61294;65.988;29.172;2022-12-10T05:41:15;98673.00;;;-9.06;100.00
73103;BME280;61294;65.988;29.172;2022-12-10T05:43:42;98661.78;;;-9.20;100.00
73103;BME280;61294;65.988;29.172;2022-12-10T05:46:23;98681.53;;;-9.05;100.00
73103;BME280;61294;65.988;29.172;2022-12-10T05:48:49;98678.09;;;-9.06;100.00
73103;BME280;61294;65.988;29.172;2022-12-10T05:51:20;98654.34;;;-9.16;100.00
73103;BME280;61294;65.988;29.172;2022-12-10T05:53:46;98676.78;;;-9.00;100.00
73103;BME280;61294;65.988;29.172;2022-12-10T05:56:15;98681.75;;;-9.02;100.00
73103;BME280;61294;65.988;29.172;2022-12-10T05:58:43;98681.44;;;-9.07;100.00
73103;BME280;61294;65.988;29.172;2022-12-10T06:01:11;98663.91;;;-9.14;100.00
73103;BME280;61294;65.988;29.172;2022-12-10T06:03:37;98682.78;;;-9.00;100.00
73103;BME280;61294;65.988;29.172;2022-12-10T06:06:04;98649.34;;;-9.15;100.00
73103;BME280;61294;65.988;29.172;2022-12-10T06:08:31;98672.00;;;-9.08;100.00
73103;BME280;61294;65.988;29.172;2022-12-10T06:11:02;98671.22;;;-9.07;100.00
73103;BME280;61294;65.988;29.172;2022-12-10T06:13:28;98675.56;;;-9.06;100.00
73103;BME280;61294;65.988;29.172;2022-12-10T06:15:54;98675.56;;;-9.06;100.00
73103;BME280;61294;65.988;29.172;2022-12-10T06:18:20;98668.03;;;-9.16;100.00
73103;BME280;61294;65.988;29.172;2022-12-10T06:20:46;98648.81;;;-9.23;100.00
73103;BME280;61294;65.988;29.172;2022-12-10T06:23:12;98670.22;;;-9.21;100.00
73103;BME280;61294;65.988;29.172;2022-12-10T06:25:39;98651.16;;;-9.26;100.00
73103;BME280;61294;65.988;29.172;2022-12-10T06:28:06;98648.94;;;-9.21;100.00
73103;BME280;61294;65.988;29.172;2022-12-10T06:30:32;98682.88;;;-9.10;100.00
73103;BME280;61294;65.988;29.172;2022-12-10T06:32:59;98666.22;;;-9.17;100.00
73103;BME280;61294;65.988;29.172;2022-12-10T06:35:25;98689.09;;;-9.07;100.00
73103;BME280;61294;65.988;29.172;2022-12-10T06:37:51;98676.88;;;-9.11;100.00
73103;BME280;61294;65.988;29.172;2022-12-10T06:40:17;98677.91;;;-9.09;100.00
73103;BME280;61294;65.988;29.172;2022-12-10T06:42:43;98690.88;;;-9.06;100.00
73103;BME280;61294;65.988;29.172;2022-12-10T06:45:09;98652.50;;;-9.19;100.00
73103;BME280;61294;65.988;29.172;2022-12-10T06:47:35;98687.00;;;-9.00;100.00
73103;BME280;61294;65.988;29.172;2022-12-10T06:50:01;98699.06;;;-8.98;100.00
73103;BME280;61294;65.988;29.172;2022-12-10T06:52:27;98659.00;;;-9.11;100.00
73103;BME280;61294;65.988;29.172;2022-12-10T06:54:53;98690.53;;;-8.98;100.00
73103;BME280;61294;65.988;29.172;2022-12-10T06:57:20;98685.31;;;-9.00;100.00
73103;BME280;61294;65.988;29.172;2022-12-10T06:59:46;98676.97;;;-9.09;100.00
73103;BME280;61294;65.988;29.172;2022-12-10T07:02:12;98679.19;;;-9.02;100.00
73103;BME280;61294;65.988;29.172;2022-12-10T07:04:38;98688.97;;;-8.96;100.00
73103;BME280;61294;65.988;29.172;2022-12-10T07:07:05;98695.84;;;-8.95;100.00
73103;BME280;61294;65.988;29.172;2022-12-10T07:09:32;98695.84;;;-8.95;100.00
73103;BME280;61294;65.988;29.172;2022-12-10T07:11:58;98686.31;;;-8.98;100.00
73103;BME280;61294;65.988;29.172;2022-12-10T07:14:24;98695.97;;;-8.94;100.00
73103;BME280;61294;65.988;29.172;2022-12-10T07:16:50;98692.75;;;-8.91;100.00
73103;BME280;61294;65.988;29.172;2022-12-10T07:19:16;98690.97;;;-8.92;100.00
73103;BME280;61294;65.988;29.172;2022-12-10T07:21:42;98687.66;;;-8.91;100.00
73103;BME280;61294;65.988;29.172;2022-12-10T07:24:15;98657.81;;;-9.04;100.00
73103;BME280;61294;65.988;29.172;2022-12-10T07:26:42;98657.03;;;-9.03;100.00
73103;BME280;61294;65.988;29.172;2022-12-10T07:29:17;98659.22;;;-9.08;100.00
73103;BME280;61294;65.988;29.172;2022-12-10T07:31:44;98675.00;;;-9.02;100.00
73103;BME280;61294;65.988;29.172;2022-12-10T07:34:10;98679.19;;;-9.02;100.00
73103;BME280;61294;65.988;29.172;2022-12-10T07:36:36;98680.66;;;-9.06;100.00
73103;BME280;61294;65.988;29.172;2022-12-10T07:39:05;98693.97;;;-8.98;100.00
73103;BME280;61294;65.988;29.172;2022-12-10T07:41:32;98692.22;;;-8.99;100.00
73103;BME280;61294;65.988;29.172;2022-12-10T07:43:57;98685.44;;;-8.98;100.00
73103;BME280;61294;65.988;29.172;2022-12-10T07:46:27;98695.63;;;-8.98;100.00
73103;BME280;61294;65.988;29.172;2022-12-10T07:48:53;98663.69;;;-9.17;100.00
73103;BME280;61294;65.988;29.172;2022-12-10T07:51:21;98688.97;;;-8.96;100.00
73103;BME280;61294;65.988;29.172;2022-12-10T07:53:47;98686.53;;;-9.07;100.00
73103;BME280;61294;65.988;29.172;2022-12-10T07:56:13;98698.31;;;-8.97;100.00
73103;BME280;61294;65.988;29.172;2022-12-10T07:58:44;98704.19;;;-8.98;100.00
73103;BME280;61294;65.988;29.172;2022-12-10T08:01:16;98711.94;;;-8.96;100.00
73103;BME280;61294;65.988;29.172;2022-12-10T08:03:42;98693.97;;;-9.10;100.00
73103;BME280;61294;65.988;29.172;2022-12-10T08:06:16;98706.72;;;-8.98;100.00
73103;BME280;61294;65.988;29.172;2022-12-10T08:08:43;98678.34;;;-9.14;100.00
73103;BME280;61294;65.988;29.172;2022-12-10T08:11:10;98716.28;;;-8.95;100.00
73103;BME280;61294;65.988;29.172;2022-12-10T08:13:36;98679.09;;;-9.15;100.00
73103;BME280;61294;65.988;29.172;2022-12-10T08:16:07;98691.09;;;-9.03;100.00
73103;BME280;61294;65.988;29.172;2022-12-10T08:18:35;98708.50;;;-8.97;100.00
73103;BME280;61294;65.988;29.172;2022-12-10T08:21:05;98695.09;;;-9.06;100.00
73103;BME280;61294;65.988;29.172;2022-12-10T08:23:31;98705.31;;;-8.94;100.00
73103;BME280;61294;65.988;29.172;2022-12-10T08:25:57;98686.75;;;-9.04;100.00
73103;BME280;61294;65.988;29.172;2022-12-10T08:28:23;98711.59;;;-8.89;100.00
73103;BME280;61294;65.988;29.172;2022-12-10T08:30:49;98702.09;;;-8.92;100.00
73103;BME280;61294;65.988;29.172;2022-12-10T08:33:15;98712.72;;;-8.86;100.00
73103;BME280;61294;65.988;29.172;2022-12-10T08:35:41;98694.44;;;-8.92;100.00
73103;BME280;61294;65.988;29.172;2022-12-10T08:38:07;98696.28;;;-8.89;100.00
73103;BME280;61294;65.988;29.172;2022-12-10T08:40:32;98712.19;;;-8.81;100.00
73103;BME280;61294;65.988;29.172;2022-12-10T08:42:58;98703.19;;;-8.88;100.00
73103;BME280;61294;65.988;29.172;2022-12-10T08:45:24;98696.53;;;-8.86;100.00
73103;BME280;61294;65.988;29.172;2022-12-10T08:47:50;98710.72;;;-8.78;100.00
73103;BME280;61294;65.988;29.172;2022-12-10T08:50:15;98717.06;;;-8.73;100.00
73103;BME280;61294;65.988;29.172;2022-12-10T08:52:41;98714.81;;;-8.68;100.00
73103;BME280;61294;65.988;29.172;2022-12-10T08:55:07;98712.50;;;-8.77;100.00
73103;BME280;61294;65.988;29.172;2022-12-10T08:57:33;98720.94;;;-8.66;100.00
73103;BME280;61294;65.988;29.172;2022-12-10T08:59:58;98729.59;;;-8.64;100.00
73103;BME280;61294;65.988;29.172;2022-12-10T09:02:24;98727.13;;;-8.62;100.00
73103;BME280;61294;65.988;29.172;2022-12-10T09:04:50;98684.19;;;-8.80;100.00
73103;BME280;61294;65.988;29.172;2022-12-10T09:07:16;98722.69;;;-8.65;100.00
73103;BME280;61294;65.988;29.172;2022-12-10T09:09:42;98733.25;;;-8.60;100.00
73103;BME280;61294;65.988;29.172;2022-12-10T09:12:07;98732.59;;;-8.58;100.00
73103;BME280;61294;65.988;29.172;2022-12-10T09:14:34;98734.13;;;-8.60;100.00
73103;BME280;61294;65.988;29.172;2022-12-10T09:17:03;98739.47;;;-8.57;100.00
73103;BME280;61294;65.988;29.172;2022-12-10T09:19:29;98727.94;;;-8.63;100.00
73103;BME280;61294;65.988;29.172;2022-12-10T09:21:55;98749.03;;;-8.54;100.00
73103;BME280;61294;65.988;29.172;2022-12-10T09:24:20;98742.38;;;-8.52;100.00
73103;BME280;61294;65.988;29.172;2022-12-10T09:26:46;98706.94;;;-8.71;100.00
73103;BME280;61294;65.988;29.172;2022-12-10T09:29:12;98756.00;;;-8.52;100.00
73103;BME280;61294;65.988;29.172;2022-12-10T09:31:38;98732.72;;;-8.56;100.00
73103;BME280;61294;65.988;29.172;2022-12-10T09:34:04;98751.34;;;-8.45;100.00
73103;BME280;61294;65.988;29.172;2022-12-10T09:36:30;98747.31;;;-8.42;100.00
73103;BME280;61294;65.988;29.172;2022-12-10T09:38:56;98737.97;;;-8.41;100.00
73103;BME280;61294;65.988;29.172;2022-12-10T09:52:01;98715.09;;;-8.40;100.00
73103;BME280;61294;65.988;29.172;2022-12-10T09:57:29;98739.72;;;-8.28;100.00
73103;BME280;61294;65.988;29.172;2022-12-10T10:00:00;98741.50;;;-8.27;100.00
73103;BME280;61294;65.988;29.172;2022-12-10T10:02:31;98735.50;;;-8.28;100.00
73103;BME280;61294;65.988;29.172;2022-12-10T10:07:44;98741.63;;;-8.26;100.00
73103;BME280;61294;65.988;29.172;2022-12-10T10:12:52;98700.06;;;-8.35;100.00
73103;BME280;61294;65.988;29.172;2022-12-10T10:15:24;98712.63;;;-8.26;100.00
73103;BME280;61294;65.988;29.172;2022-12-10T10:17:53;98688.00;;;-8.38;100.00
73103;BME280;61294;65.988;29.172;2022-12-10T10:20:21;98731.13;;;-8.17;100.00
73103;BME280;61294;65.988;29.172;2022-12-10T10:22:47;98720.59;;;-8.22;100.00
73103;BME280;61294;65.988;29.172;2022-12-10T10:25:18;98736.91;;;-8.20;100.00
73103;BME280;61294;65.988;29.172;2022-12-10T10:27:45;98744.59;;;-8.20;100.00
73103;BME280;61294;65.988;29.172;2022-12-10T10:30:17;98711.97;;;-8.36;100.00
73103;BME280;61294;65.988;29.172;2022-12-10T10:32:47;98748.06;;;-8.19;100.00
73103;BME280;61294;65.988;29.172;2022-12-10T10:35:25;98753.28;;;-8.18;100.00
73103;BME280;61294;65.988;29.172;2022-12-10T10:37:57;98727.06;;;-8.27;100.00
73103;BME280;61294;65.988;29.172;2022-12-10T10:40:27;98749.34;;;-8.12;100.00
73103;BME280;61294;65.988;29.172;2022-12-10T10:42:58;98705.97;;;-8.36;100.00
73103;BME280;61294;65.988;29.172;2022-12-10T10:45:34;98728.78;;;-8.14;100.00
73103;BME280;61294;65.988;29.172;2022-12-10T10:48:13;98744.78;;;-8.05;100.00
73103;BME280;61294;65.988;29.172;2022-12-10T10:50:43;98744.13;;;-8.02;100.00
73103;BME280;61294;65.988;29.172;2022-12-10T10:53:24;98751.91;;;-8.01;100.00
73103;BME280;61294;65.988;29.172;2022-12-10T10:55:52;98745.88;;;-8.01;100.00
73103;BME280;61294;65.988;29.172;2022-12-10T10:58:20;98743.97;;;-8.04;100.00
73103;BME280;61294;65.988;29.172;2022-12-10T11:01:06;98721.47;;;-8.21;100.00
73103;BME280;61294;65.988;29.172;2022-12-10T11:03:35;98751.09;;;-8.00;100.00
73103;BME280;61294;65.988;29.172;2022-12-10T11:06:06;98712.38;;;-8.18;100.00
73103;BME280;61294;65.988;29.172;2022-12-10T11:08:35;98718.56;;;-8.14;100.00
73103;BME280;61294;65.988;29.172;2022-12-10T11:11:14;98738.88;;;-8.04;100.00
73103;BME280;61294;65.988;29.172;2022-12-10T11:13:42;98714.13;;;-8.17;100.00
73103;BME280;61294;65.988;29.172;2022-12-10T11:16:18;98711.91;;;-8.12;100.00
73103;BME280;61294;65.988;29.172;2022-12-10T11:19:03;98710.13;;;-8.13;100.00
73103;BME280;61294;65.988;29.172;2022-12-10T11:21:31;98742.75;;;-7.97;100.00
73103;BME280;61294;65.988;29.172;2022-12-10T11:23:58;98739.31;;;-7.98;100.00
73103;BME280;61294;65.988;29.172;2022-12-10T11:29:18;98717.53;;;-8.04;100.00
73103;BME280;61294;65.988;29.172;2022-12-10T11:32:14;98737.84;;;-7.94;100.00
73103;BME280;61294;65.988;29.172;2022-12-10T11:35:01;98735.19;;;-7.95;100.00
73103;BME280;61294;65.988;29.172;2022-12-10T11:37:34;98739.53;;;-7.94;100.00
73103;BME280;61294;65.988;29.172;2022-12-10T11:48:34;98726.84;;;-7.93;100.00
73103;BME280;61294;65.988;29.172;2022-12-10T11:51:24;98748.81;;;-7.83;100.00
73103;BME280;61294;65.988;29.172;2022-12-10T11:57:09;98752.69;;;-7.76;100.00
73103;BME280;61294;65.988;29.172;2022-12-10T11:59:51;98759.56;;;-7.75;100.00
73103;BME280;61294;65.988;29.172;2022-12-10T12:02:24;98748.38;;;-7.77;100.00
73103;BME280;61294;65.988;29.172;2022-12-10T12:11:23;98754.44;;;-7.75;100.00
73103;BME280;61294;65.988;29.172;2022-12-10T12:14:00;98767.59;;;-7.71;100.00
73103;BME280;61294;65.988;29.172;2022-12-10T12:16:41;98724.97;;;-7.95;100.00
73103;BME280;61294;65.988;29.172;2022-12-10T12:19:14;98757.47;;;-7.69;100.00
73103;BME280;61294;65.988;29.172;2022-12-10T12:21:44;98743.25;;;-7.77;100.00
73103;BME280;61294;65.988;29.172;2022-12-10T12:24:20;98734.00;;;-7.75;100.00
73103;BME280;61294;65.988;29.172;2022-12-10T12:28:24;98742.78;;;-7.72;100.00
73103;BME280;61294;65.988;29.172;2022-12-10T12:30:20;98751.53;;;-7.68;100.00
73103;BME280;61294;65.988;29.172;2022-12-10T12:35:23;98756.81;;;-7.78;100.00
73103;BME280;61294;65.988;29.172;2022-12-10T12:37:59;98759.81;;;-7.72;100.00
73103;BME280;61294;65.988;29.172;2022-12-10T12:40:43;98736.66;;;-7.74;100.00
73103;BME280;61294;65.988;29.172;2022-12-10T12:43:17;98727.91;;;-7.77;100.00
73103;BME280;61294;65.988;29.172;2022-12-10T12:45:53;98741.94;;;-7.84;100.00
73103;BME280;61294;65.988;29.172;2022-12-10T12:48:29;98708.34;;;-8.02;100.00
73103;BME280;61294;65.988;29.172;2022-12-10T12:51:19;98749.59;;;-7.84;100.00
73103;BME280;61294;65.988;29.172;2022-12-10T12:53:46;98757.72;;;-7.78;100.00
73103;BME280;61294;65.988;29.172;2022-12-10T12:59:56;98750.91;;;-7.77;100.00
73103;BME280;61294;65.988;29.172;2022-12-10T13:04:52;98761.47;;;-7.73;100.00
73103;BME280;61294;65.988;29.172;2022-12-10T13:09:46;98755.00;;;-7.68;100.00
73103;BME280;61294;65.988;29.172;2022-12-10T13:12:30;98718.25;;;-7.82;100.00
73103;BME280;61294;65.988;29.172;2022-12-10T13:15:19;98742.00;;;-7.71;100.00
73103;BME280;61294;65.988;29.172;2022-12-10T13:28:26;98751.31;;;-7.59;100.00
73103;BME280;61294;65.988;29.172;2022-12-10T13:41:39;98763.97;;;-7.36;100.00
73103;BME280;61294;65.988;29.172;2022-12-10T13:44:39;98747.94;;;-7.33;100.00
73103;BME280;61294;65.988;29.172;2022-12-10T13:49:56;98766.97;;;-7.16;100.00
73103;BME280;61294;65.988;29.172;2022-12-10T13:58:17;98758.00;;;-7.23;100.00
73103;BME280;61294;65.988;29.172;2022-12-10T14:01:02;98777.88;;;-7.19;100.00
73103;BME280;61294;65.988;29.172;2022-12-10T14:06:23;98772.28;;;-7.13;100.00
73103;BME280;61294;65.988;29.172;2022-12-10T14:08:57;98770.34;;;-7.04;100.00
73103;BME280;61294;65.988;29.172;2022-12-10T14:11:53;98761.28;;;-6.99;100.00
73103;BME280;61294;65.988;29.172;2022-12-10T14:14:27;98767.19;;;-7.00;100.00
73103;BME280;61294;65.988;29.172;2022-12-10T14:16:55;98765.03;;;-6.94;100.00
73103;BME280;61294;65.988;29.172;2022-12-10T14:19:25;98774.63;;;-6.91;100.00
73103;BME280;61294;65.988;29.172;2022-12-10T14:21:52;98751.13;;;-6.97;100.00
73103;BME280;61294;65.988;29.172;2022-12-10T14:24:30;98769.09;;;-6.84;100.00
73103;BME280;61294;65.988;29.172;2022-12-10T14:26:59;98765.97;;;-6.80;100.00
73103;BME280;61294;65.988;29.172;2022-12-10T14:29:25;98753.16;;;-6.80;100.00
73103;BME280;61294;65.988;29.172;2022-12-10T14:31:50;98770.38;;;-6.77;100.00